Time;durP1;ratioP1;P1;durP2;ratioP2;P2;SDS_P1;SDS_P2;PMS_P1;PMS_P2;Temp;Humidity;BMP_temperature;BMP_pressure;BME280_temperature;BME280_humidity;BME280_pressure;Samples;Min_cycle;Max_cycle;Signal;HPM_P1;HPM_P2
2023/09/30 00:00:58;;;;;;;7.90;2.88;;;17.30;99.90;;;;;;6095736;23;20020;-70
2023/09/30 00:03:24;;;;;;;10.10;2.50;;;18.10;99.90;;;;;;6122900;23;20013;-70
2023/09/30 00:05:49;;;;;;;13.02;2.40;;;17.70;99.90;;;;;;6122762;23;20010;-70
2023/09/30 00:08:15;;;;;;;9.65;2.70;;;17.60;99.90;;;;;;6122421;23;20025;-72
2023/09/30 00:10:41;;;;;;;9.07;2.40;;;17.60;99.90;;;;;;6073150;23;20022;-70
2023/09/30 00:13:06;;;;;;;10.43;2.83;;;18.00;99.90;;;;;;6096368;23;20018;-70
2023/09/30 00:15:33;;;;;;;9.70;2.67;;;17.40;99.90;;;;;;6097511;23;20356;-70
2023/09/30 00:17:59;;;;;;;9.05;2.42;;;17.20;99.90;;;;;;6122235;23;20014;-70
2023/09/30 00:20:25;;;;;;;10.15;2.70;;;16.90;99.90;;;;;;6123197;23;20020;-70
2023/09/30 00:22:50;;;;;;;11.30;2.88;;;17.50;99.90;;;;;;6123368;23;20460;-70
2023/09/30 00:25:16;;;;;;;6.72;2.40;;;17.40;99.90;;;;;;6095923;23;20467;-70
2023/09/30 00:27:42;;;;;;;7.38;2.28;;;17.90;99.90;;;;;;6096053;23;20305;-70
2023/09/30 00:30:08;;;;;;;7.78;2.47;;;17.60;99.90;;;;;;6095337;23;20053;-69
2023/09/30 00:32:33;;;;;;;8.80;2.45;;;17.00;99.90;;;;;;6092146;23;20028;-69
2023/09/30 00:35:02;;;;;;;8.25;2.50;;;17.40;99.90;;;;;;6120547;23;20018;-70
2023/09/30 00:37:27;;;;;;;7.32;2.25;;;17.60;99.90;;;;;;6120444;23;20077;-69
2023/09/30 00:39:53;;;;;;;8.88;2.53;;;16.80;99.90;;;;;;6122102;23;20014;-70
2023/09/30 00:42:20;;;;;;;11.95;2.70;;;17.20;99.90;;;;;;6120990;23;20010;-70
2023/09/30 00:44:46;;;;;;;10.57;2.72;;;17.30;99.90;;;;;;6122087;23;20018;-69
2023/09/30 00:47:14;;;;;;;8.05;2.20;;;17.70;99.90;;;;;;6120338;23;20111;-70
2023/09/30 00:49:43;;;;;;;8.57;2.78;;;16.80;99.90;;;;;;6120888;23;20018;-70
2023/09/30 00:52:12;;;;;;;11.65;2.40;;;17.70;99.90;;;;;;6120284;23;20021;-69
2023/09/30 00:54:39;;;;;;;6.57;2.47;;;16.90;99.90;;;;;;6096695;23;20464;-70
2023/09/30 00:57:05;;;;;;;8.88;2.65;;;17.30;99.90;;;;;;6095311;23;20097;-70
2023/09/30 00:59:32;;;;;;;9.30;2.80;;;17.00;99.90;;;;;;6119132;23;20020;-69
2023/09/30 01:02:00;;;;;;;10.48;2.92;;;17.30;99.90;;;;;;6120788;23;20073;-70
2023/09/30 01:04:27;;;;;;;8.75;2.15;;;17.30;99.90;;;;;;6119953;23;20012;-70
2023/09/30 01:06:53;;;;;;;8.05;2.40;;;17.80;99.90;;;;;;6120766;23;20452;-69
2023/09/30 01:09:20;;;;;;;9.20;2.85;;;17.00;99.90;;;;;;6122422;23;20073;-69
2023/09/30 01:11:46;;;;;;;11.57;2.75;;;16.80;99.90;;;;;;6122676;23;20474;-70
2023/09/30 01:14:30;;;;;;;10.75;3.35;;;16.90;99.90;;;;;;6120298;23;20017;-69
2023/09/30 01:16:57;;;;;;;6.80;2.42;;;18.50;99.90;;;;;;6120739;23;20502;-70
2023/09/30 01:19:24;;;;;;;6.32;2.17;;;16.90;99.90;;;;;;6120447;23;20033;-70
2023/09/30 01:21:54;;;;;;;7.95;2.38;;;17.30;99.90;;;;;;6120853;23;20129;-70
2023/09/30 01:24:20;;;;;;;10.05;2.47;;;18.00;99.90;;;;;;6121991;23;20025;-70
2023/09/30 01:26:45;;;;;;;6.57;2.20;;;17.10;99.90;;;;;;6121121;23;20009;-69
2023/09/30 01:29:11;;;;;;;8.73;2.20;;;17.20;99.90;;;;;;6119459;23;20025;-70
2023/09/30 01:31:38;;;;;;;12.00;2.75;;;17.10;99.90;;;;;;6120149;23;20014;-70
2023/09/30 01:34:04;;;;;;;8.57;2.10;;;17.80;99.90;;;;;;6095798;23;20080;-70
2023/09/30 01:36:30;;;;;;;8.38;2.83;;;17.00;99.90;;;;;;6119629;23;20062;-69
2023/09/30 01:38:56;;;;;;;5.63;2.15;;;16.70;99.90;;;;;;6119850;23;20010;-69
2023/09/30 01:41:22;;;;;;;9.40;3.00;;;17.10;99.90;;;;;;6120099;23;20014;-70
2023/09/30 01:43:48;;;;;;;6.05;1.95;;;17.30;99.90;;;;;;6095869;23;20010;-70
2023/09/30 01:46:14;;;;;;;7.00;2.10;;;16.60;99.90;;;;;;6095202;23;20017;-70
2023/09/30 01:48:39;;;;;;;9.15;2.15;;;16.70;99.90;;;;;;6121620;23;20407;-70
2023/09/30 01:51:06;;;;;;;6.82;2.22;;;16.70;99.90;;;;;;6119886;23;20017;-70
2023/09/30 01:53:32;;;;;;;6.38;2.33;;;17.10;99.90;;;;;;6119986;23;20340;-69
2023/09/30 01:55:58;;;;;;;7.55;2.30;;;18.40;99.90;;;;;;6120196;23;20070;-70
2023/09/30 01:58:25;;;;;;;8.93;2.58;;;17.20;99.90;;;;;;6118709;23;20014;-70
2023/09/30 02:00:54;;;;;;;7.75;2.08;;;16.60;99.90;;;;;;6095578;23;20021;-69
2023/09/30 02:03:19;;;;;;;11.88;2.40;;;16.00;99.90;;;;;;6117267;23;20069;-70
2023/09/30 02:05:45;;;;;;;7.15;2.30;;;16.90;99.90;;;;;;6121152;23;20010;-70
2023/09/30 02:08:13;;;;;;;9.15;2.80;;;16.80;99.90;;;;;;6118654;23;20017;-70
2023/09/30 02:10:40;;;;;;;7.45;2.60;;;17.60;99.90;;;;;;6121582;23;20014;-70
2023/09/30 02:13:06;;;;;;;9.68;2.97;;;18.00;99.90;;;;;;6118452;23;20160;-70
2023/09/30 02:15:39;;;;;;;9.35;2.45;;;16.80;99.90;;;;;;6095444;23;20474;-70
2023/09/30 02:18:05;;;;;;;9.13;2.53;;;17.20;99.90;;;;;;6120578;23;20013;-70
2023/09/30 02:20:30;;;;;;;9.82;2.72;;;17.30;99.90;;;;;;6120308;23;20474;-70
2023/09/30 02:22:58;;;;;;;7.13;2.78;;;17.70;99.90;;;;;;6094820;23;20490;-70
2023/09/30 02:25:25;;;;;;;8.65;3.00;;;17.20;99.90;;;;;;6120747;23;20010;-69
2023/09/30 02:27:51;;;;;;;10.45;2.60;;;17.30;99.90;;;;;;6122233;23;20140;-70
2023/09/30 02:30:17;;;;;;;10.32;2.92;;;17.60;99.90;;;;;;6121312;23;20013;-70
2023/09/30 02:32:45;;;;;;;7.25;2.33;;;17.10;99.90;;;;;;6122000;23;20029;-69
2023/09/30 02:35:12;;;;;;;7.63;2.10;;;17.00;99.90;;;;;;6096697;23;20018;-69
2023/09/30 02:37:38;;;;;;;9.45;2.63;;;16.80;99.90;;;;;;6095490;23;20029;-70
2023/09/30 02:40:08;;;;;;;10.27;2.60;;;17.50;99.90;;;;;;6123167;23;20137;-69
2023/09/30 02:42:34;;;;;;;7.97;1.90;;;16.90;99.90;;;;;;6094912;23;20057;-70
2023/09/30 02:45:01;;;;;;;10.95;2.60;;;16.80;99.90;;;;;;6122905;23;20448;-70
2023/09/30 02:47:26;;;;;;;12.52;3.38;;;17.50;99.90;;;;;;6072119;23;20025;-71
2023/09/30 02:49:52;;;;;;;8.45;2.20;;;16.80;99.90;;;;;;6096305;23;20073;-69
2023/09/30 02:52:18;;;;;;;6.50;1.90;;;17.80;99.90;;;;;;6122725;23;20439;-70
2023/09/30 02:54:43;;;;;;;8.20;2.38;;;17.20;99.90;;;;;;6122990;23;20073;-70
2023/09/30 02:57:09;;;;;;;7.15;2.33;;;17.10;99.90;;;;;;6096084;23;20136;-70
2023/09/30 02:59:36;;;;;;;7.05;2.33;;;16.80;99.90;;;;;;6095287;23;20069;-70
2023/09/30 03:02:03;;;;;;;9.95;2.33;;;17.80;99.90;;;;;;6095241;23;20061;-70
2023/09/30 03:04:28;;;;;;;9.98;2.42;;;17.30;99.90;;;;;;6122271;23;20014;-70
2023/09/30 03:06:56;;;;;;;7.00;2.30;;;17.20;99.90;;;;;;6122467;23;20206;-69
2023/09/30 03:09:22;;;;;;;7.72;2.45;;;16.60;99.90;;;;;;6094980;23;20018;-70
2023/09/30 03:11:48;;;;;;;8.45;2.33;;;17.00;99.90;;;;;;6095951;23;20403;-69
2023/09/30 03:14:14;;;;;;;7.82;2.13;;;17.40;99.90;;;;;;6121320;23;20062;-70
2023/09/30 03:16:41;;;;;;;8.15;2.35;;;17.30;99.90;;;;;;6123328;23;20018;-69
2023/09/30 03:19:08;;;;;;;8.15;2.00;;;17.20;99.90;;;;;;6046173;23;20041;-70
2023/09/30 03:21:37;;;;;;;8.65;2.40;;;16.90;99.90;;;;;;6119680;23;20440;-70
2023/09/30 03:24:07;;;;;;;8.55;2.45;;;17.10;99.90;;;;;;6072652;23;20061;-69
2023/09/30 03:26:34;;;;;;;8.52;2.30;;;17.30;99.90;;;;;;6097124;23;20301;-70
2023/09/30 03:28:59;;;;;;;8.13;2.53;;;17.30;99.90;;;;;;6096889;23;20017;-70
2023/09/30 03:31:25;;;;;;;9.35;2.38;;;16.80;99.90;;;;;;6123383;23;20068;-70
2023/09/30 03:33:54;;;;;;;8.23;2.83;;;17.20;99.90;;;;;;6096472;23;20021;-69
2023/09/30 03:36:24;;;;;;;8.32;2.05;;;16.80;99.90;;;;;;6096047;23;20013;-70
2023/09/30 03:38:50;;;;;;;7.40;2.40;;;16.80;99.90;;;;;;6096796;23;20092;-70
2023/09/30 03:41:16;;;;;;;7.32;2.30;;;16.80;99.90;;;;;;6096148;23;20414;-69
2023/09/30 03:43:44;;;;;;;7.28;3.13;;;16.90;99.90;;;;;;6097397;23;20069;-69
2023/09/30 03:46:11;;;;;;;10.50;2.55;;;17.10;99.90;;;;;;6096407;23;20072;-70
2023/09/30 03:48:39;;;;;;;12.20;2.38;;;16.60;99.90;;;;;;6119500;23;20071;-69
2023/09/30 03:51:15;;;;;;;8.25;2.15;;;17.30;99.90;;;;;;6072735;23;20056;-69
2023/09/30 03:53:47;;;;;;;6.30;2.03;;;17.90;99.90;;;;;;6123193;23;20010;-70
2023/09/30 03:56:13;;;;;;;9.07;2.10;;;18.30;99.90;;;;;;6122989;23;20010;-69
2023/09/30 03:58:43;;;;;;;8.55;2.72;;;17.70;99.90;;;;;;6095681;23;20060;-70
2023/09/30 04:01:16;;;;;;;8.27;2.15;;;17.40;99.90;;;;;;6123017;23;20355;-70
2023/09/30 04:03:43;;;;;;;7.30;2.45;;;16.60;99.90;;;;;;6097107;23;20466;-70
2023/09/30 04:06:09;;;;;;;7.45;2.30;;;16.90;99.90;;;;;;6097021;23;20017;-70
2023/09/30 04:08:35;;;;;;;8.18;2.97;;;16.80;99.90;;;;;;6096719;23;20006;-70
2023/09/30 04:11:02;;;;;;;9.90;2.38;;;17.10;99.90;;;;;;6123427;23;20405;-69
2023/09/30 04:13:29;;;;;;;8.25;2.30;;;17.70;99.90;;;;;;6122941;23;20337;-69
2023/09/30 04:15:56;;;;;;;7.22;2.20;;;17.30;99.90;;;;;;6097319;23;20014;-70
2023/09/30 04:18:22;;;;;;;9.73;2.28;;;16.70;99.90;;;;;;6096696;23;20018;-69
2023/09/30 04:20:48;;;;;;;9.98;3.28;;;17.00;99.90;;;;;;6122873;23;20037;-69
2023/09/30 04:23:15;;;;;;;8.30;2.53;;;16.70;99.90;;;;;;6096488;23;20456;-69
2023/09/30 04:25:42;;;;;;;6.57;2.20;;;17.00;99.90;;;;;;6095015;23;20017;-69
2023/09/30 04:28:08;;;;;;;8.43;2.25;;;16.30;99.90;;;;;;6096367;23;20017;-70
2023/09/30 04:30:34;;;;;;;6.55;2.15;;;16.70;99.90;;;;;;6122955;23;20088;-70
2023/09/30 04:33:00;;;;;;;9.38;2.65;;;17.30;99.90;;;;;;6123071;23;20017;-70
2023/09/30 04:35:26;;;;;;;8.13;2.38;;;17.00;99.90;;;;;;6122843;23;20020;-69
2023/09/30 04:37:55;;;;;;;15.15;3.20;;;16.70;99.90;;;;;;6122766;23;20017;-70
2023/09/30 04:40:20;;;;;;;6.22;2.20;;;17.30;99.90;;;;;;6096581;23;20025;-69
2023/09/30 04:42:46;;;;;;;6.57;2.30;;;17.00;99.90;;;;;;6121784;23;20009;-70
2023/09/30 04:45:13;;;;;;;7.90;2.45;;;17.50;99.90;;;;;;6095859;23;20014;-70
2023/09/30 04:47:39;;;;;;;8.93;2.60;;;17.40;99.90;;;;;;6095355;23;20104;-69
2023/09/30 04:50:08;;;;;;;7.32;2.45;;;17.20;99.90;;;;;;6094809;23;20462;-70
2023/09/30 04:52:38;;;;;;;6.82;2.22;;;16.90;99.90;;;;;;6121115;23;20010;-69
2023/09/30 04:55:05;;;;;;;8.60;2.63;;;17.40;99.90;;;;;;6071918;23;20036;-69
2023/09/30 04:57:34;;;;;;;6.82;2.40;;;17.10;99.90;;;;;;6121933;23;20206;-70
2023/09/30 05:00:00;;;;;;;8.95;2.63;;;17.50;99.90;;;;;;6096720;23;20072;-69
2023/09/30 05:02:27;;;;;;;7.07;2.17;;;17.00;99.90;;;;;;6122865;23;20010;-70
2023/09/30 05:04:53;;;;;;;8.70;2.65;;;16.70;99.90;;;;;;6096455;23;20010;-69
2023/09/30 05:07:22;;;;;;;7.95;2.65;;;16.80;99.90;;;;;;6121477;23;20010;-70
2023/09/30 05:09:48;;;;;;;7.05;2.03;;;16.90;99.90;;;;;;6071960;23;20010;-70
2023/09/30 05:12:16;;;;;;;8.30;2.15;;;16.80;99.90;;;;;;6095735;23;20018;-70
2023/09/30 05:14:41;;;;;;;8.98;2.88;;;16.50;99.90;;;;;;6094971;23;20014;-70
2023/09/30 05:17:08;;;;;;;6.90;2.25;;;17.00;99.90;;;;;;6096114;23;20022;-69
2023/09/30 05:19:33;;;;;;;8.52;2.30;;;16.40;99.90;;;;;;6095778;23;20068;-70
2023/09/30 05:22:00;;;;;;;7.18;2.40;;;17.10;99.90;;;;;;6121526;23;20085;-70
2023/09/30 05:24:27;;;;;;;8.25;2.40;;;16.20;99.90;;;;;;6096706;23;20021;-69
2023/09/30 05:26:53;;;;;;;5.80;2.10;;;16.80;99.90;;;;;;6097007;23;20014;-69
2023/09/30 05:29:20;;;;;;;6.63;2.03;;;16.80;99.90;;;;;;6121827;23;20033;-71
2023/09/30 05:31:46;;;;;;;8.50;2.30;;;16.90;99.90;;;;;;6105975;23;20018;-69
2023/09/30 05:34:11;;;;;;;8.20;1.90;;;17.10;99.90;;;;;;6119573;23;20014;-69
2023/09/30 05:36:38;;;;;;;10.48;2.30;;;17.10;99.90;;;;;;6116881;23;20479;-69
2023/09/30 05:39:04;;;;;;;7.68;2.17;;;17.00;99.90;;;;;;6120038;23;20316;-70
2023/09/30 05:41:33;;;;;;;5.97;2.50;;;17.00;99.90;;;;;;6119791;23;20010;-69
2023/09/30 05:43:59;;;;;;;7.78;2.28;;;16.70;99.90;;;;;;6122541;23;20025;-70
2023/09/30 05:46:27;;;;;;;6.90;2.00;;;16.60;99.90;;;;;;6121233;23;20279;-70
2023/09/30 05:48:55;;;;;;;5.93;2.10;;;16.20;99.90;;;;;;6122218;23;20106;-70
2023/09/30 05:51:21;;;;;;;7.95;2.50;;;16.90;99.90;;;;;;6122020;23;20455;-69
2023/09/30 05:53:50;;;;;;;7.97;2.25;;;17.20;99.90;;;;;;6120180;23;20014;-70
2023/09/30 05:56:16;;;;;;;6.38;2.30;;;16.90;99.90;;;;;;6096146;23;20166;-70
2023/09/30 05:58:42;;;;;;;11.38;2.30;;;16.70;99.90;;;;;;6121337;23;20541;-70
2023/09/30 06:01:12;;;;;;;7.70;2.10;;;15.90;99.90;;;;;;6123919;23;20037;-70
2023/09/30 06:03:41;;;;;;;6.70;2.08;;;16.10;99.90;;;;;;6121579;23;20048;-70
2023/09/30 06:06:15;;;;;;;9.05;2.00;;;16.70;99.90;;;;;;6122340;23;20065;-70
2023/09/30 06:08:43;;;;;;;7.28;2.65;;;17.10;99.90;;;;;;6121775;23;20017;-69
2023/09/30 06:11:17;;;;;;;7.60;2.35;;;16.50;99.90;;;;;;6123507;23;20053;-69
2023/09/30 06:13:42;;;;;;;8.30;2.17;;;16.90;99.90;;;;;;6122990;23;20021;-70
2023/09/30 06:16:10;;;;;;;5.93;1.98;;;16.60;99.90;;;;;;6122720;23;20056;-69
2023/09/30 06:18:39;;;;;;;9.88;2.45;;;16.90;99.90;;;;;;6122307;23;20072;-69
2023/09/30 06:21:05;;;;;;;7.40;2.50;;;16.90;99.90;;;;;;6097914;23;20014;-69
2023/09/30 06:23:31;;;;;;;8.00;2.22;;;17.00;99.90;;;;;;6122968;23;20041;-69
2023/09/30 06:25:57;;;;;;;8.82;2.30;;;16.40;99.90;;;;;;6123823;23;20486;-69
2023/09/30 06:28:25;;;;;;;8.73;2.30;;;17.00;99.90;;;;;;6121967;23;20483;-68
2023/09/30 06:30:54;;;;;;;7.45;2.20;;;16.80;99.90;;;;;;6123885;23;20018;-69
2023/09/30 06:33:21;;;;;;;9.07;2.40;;;16.80;99.90;;;;;;6094086;23;20060;-70
2023/09/30 06:35:55;;;;;;;7.57;3.50;;;16.50;99.90;;;;;;6121828;23;20337;-70
2023/09/30 06:38:21;;;;;;;8.30;2.50;;;16.80;99.90;;;;;;6071650;23;20053;-70
2023/09/30 06:40:47;;;;;;;9.88;2.50;;;16.70;99.90;;;;;;6071099;23;20016;-69
2023/09/30 06:43:15;;;;;;;9.82;2.72;;;16.00;99.90;;;;;;6094828;23;20050;-69
2023/09/30 06:45:42;;;;;;;8.02;2.30;;;16.80;99.90;;;;;;6093532;23;20071;-69
2023/09/30 06:48:15;;;;;;;9.95;2.58;;;16.70;99.90;;;;;;6093346;23;20065;-69
2023/09/30 06:50:48;;;;;;;8.10;2.40;;;16.80;99.90;;;;;;6120065;23;20116;-69
2023/09/30 06:53:21;;;;;;;5.57;2.13;;;17.00;99.90;;;;;;6093853;23;20065;-70
2023/09/30 06:55:47;;;;;;;8.93;2.80;;;16.70;99.90;;;;;;6120051;23;20065;-69
2023/09/30 06:58:13;;;;;;;9.90;2.90;;;16.70;99.90;;;;;;6094685;23;20018;-69
2023/09/30 07:00:41;;;;;;;9.10;2.38;;;16.70;99.90;;;;;;6121959;23;20155;-69
2023/09/30 07:03:09;;;;;;;9.05;2.25;;;16.80;99.90;;;;;;6096449;23;20464;-69
2023/09/30 07:05:36;;;;;;;7.78;2.35;;;17.10;99.90;;;;;;6096632;23;20033;-69
2023/09/30 07:08:02;;;;;;;12.05;3.75;;;17.00;99.90;;;;;;6096745;23;20014;-69
2023/09/30 07:10:29;;;;;;;7.68;2.47;;;16.90;99.90;;;;;;6122874;23;20026;-69
2023/09/30 07:12:55;;;;;;;9.38;2.85;;;16.70;99.90;;;;;;6096020;23;20014;-70
2023/09/30 07:15:21;;;;;;;10.55;2.58;;;16.70;99.90;;;;;;6096644;23;20010;-69
2023/09/30 07:17:47;;;;;;;11.95;3.20;;;16.40;99.90;;;;;;6122003;23;20308;-69
2023/09/30 07:20:13;;;;;;;13.88;3.25;;;17.10;99.90;;;;;;6121985;23;20014;-69
2023/09/30 07:22:39;;;;;;;12.52;3.85;;;17.00;99.90;;;;;;6097434;23;20041;-69
2023/09/30 07:25:06;;;;;;;17.73;3.80;;;16.60;99.90;;;;;;6097630;23;20029;-69
2023/09/30 07:27:31;;;;;;;18.23;3.65;;;17.10;99.90;;;;;;6124295;23;20014;-70
2023/09/30 07:29:57;;;;;;;13.35;3.95;;;16.70;99.90;;;;;;6096667;23;20026;-71
2023/09/30 07:32:23;;;;;;;14.63;4.20;;;16.70;99.90;;;;;;6114961;23;20049;-71
2023/09/30 07:34:52;;;;;;;15.77;5.43;;;17.20;99.90;;;;;;6122459;23;20017;-70
2023/09/30 07:37:18;;;;;;;17.80;4.53;;;16.80;99.90;;;;;;6120729;23;20368;-70
2023/09/30 07:39:45;;;;;;;13.02;3.63;;;17.00;99.90;;;;;;6096374;23;20045;-71
2023/09/30 07:42:11;;;;;;;12.85;3.97;;;17.00;99.90;;;;;;6122313;23;20321;-70
2023/09/30 07:44:39;;;;;;;11.35;3.85;;;16.90;99.90;;;;;;6123397;23;20010;-70
2023/09/30 07:47:08;;;;;;;13.40;3.30;;;16.90;99.90;;;;;;6124067;23;20347;-70
2023/09/30 07:49:34;;;;;;;10.82;3.42;;;16.90;99.90;;;;;;6121766;23;20017;-70
2023/09/30 07:52:00;;;;;;;13.25;2.90;;;17.30;99.90;;;;;;6121616;23;20282;-70
2023/09/30 07:54:28;;;;;;;13.77;3.47;;;17.60;99.90;;;;;;6097360;23;20017;-70
2023/09/30 07:56:55;;;;;;;11.80;3.10;;;17.00;99.90;;;;;;6123449;23;20069;-70
2023/09/30 07:59:20;;;;;;;12.07;3.60;;;17.10;99.90;;;;;;6097142;23;20404;-70
2023/09/30 08:01:48;;;;;;;13.30;2.75;;;17.40;99.90;;;;;;6121676;23;20073;-70
2023/09/30 08:04:16;;;;;;;9.25;3.00;;;16.60;99.90;;;;;;6123267;23;20460;-71
2023/09/30 08:06:41;;;;;;;10.77;3.28;;;16.90;99.90;;;;;;6124018;23;20033;-70
2023/09/30 08:09:12;;;;;;;8.13;3.00;;;17.40;99.90;;;;;;6121923;23;20018;-70
2023/09/30 08:11:38;;;;;;;9.80;2.83;;;16.60;99.90;;;;;;6121238;23;20018;-70
2023/09/30 08:14:06;;;;;;;10.85;2.97;;;16.90;99.90;;;;;;6096421;23;20021;-70
2023/09/30 08:16:38;;;;;;;13.10;3.38;;;17.80;99.90;;;;;;6096470;23;20014;-70
2023/09/30 08:19:04;;;;;;;9.77;2.88;;;17.90;99.90;;;;;;6095763;23;20028;-72
2023/09/30 08:21:30;;;;;;;10.45;2.83;;;16.70;99.90;;;;;;6121544;23;20013;-70
2023/09/30 08:23:57;;;;;;;10.13;2.50;;;17.30;99.90;;;;;;6120609;23;20452;-71
2023/09/30 08:26:23;;;;;;;10.90;3.15;;;17.80;99.90;;;;;;6123446;23;20010;-71
2023/09/30 08:28:49;;;;;;;9.07;2.90;;;17.80;99.90;;;;;;6120622;23;20359;-71
2023/09/30 08:31:14;;;;;;;11.38;3.70;;;17.00;99.90;;;;;;6120597;23;20021;-71
2023/09/30 08:33:43;;;;;;;15.07;3.63;;;17.60;99.90;;;;;;6122787;23;20260;-71
2023/09/30 08:36:10;;;;;;;10.55;2.80;;;17.20;99.90;;;;;;6095682;23;20046;-71
2023/09/30 08:38:40;;;;;;;10.90;2.97;;;18.00;99.90;;;;;;6096520;23;20486;-71
2023/09/30 08:41:07;;;;;;;10.45;2.83;;;17.30;99.90;;;;;;6121218;23;20088;-71
2023/09/30 08:43:38;;;;;;;11.70;3.65;;;17.70;99.90;;;;;;6097576;23;20025;-71
2023/09/30 08:46:05;;;;;;;7.68;2.30;;;17.00;99.90;;;;;;6121282;23;20021;-71
2023/09/30 08:48:32;;;;;;;13.13;2.53;;;17.10;99.90;;;;;;6121392;23;20020;-71
2023/09/30 08:50:59;;;;;;;10.75;3.28;;;17.00;99.90;;;;;;6121507;23;20096;-71
2023/09/30 08:53:26;;;;;;;9.20;2.53;;;17.80;99.90;;;;;;6120920;23;20010;-71
2023/09/30 08:55:56;;;;;;;9.05;2.97;;;17.00;99.90;;;;;;6121979;23;20092;-71
2023/09/30 08:58:27;;;;;;;8.68;2.30;;;17.10;99.90;;;;;;6095858;23;20017;-71
2023/09/30 09:00:53;;;;;;;7.75;2.92;;;18.00;99.90;;;;;;6122471;23;20065;-71
2023/09/30 09:03:19;;;;;;;9.32;2.60;;;17.40;99.90;;;;;;6096704;23;20014;-71
2023/09/30 09:05:45;;;;;;;7.90;2.40;;;17.30;99.90;;;;;;6120529;23;20017;-71
2023/09/30 09:08:11;;;;;;;6.65;2.20;;;17.40;99.90;;;;;;6121640;23;20017;-72
2023/09/30 09:10:57;;;;;;;6.40;2.25;;;17.30;99.90;;;;;;6123406;23;20097;-71
2023/09/30 09:13:23;;;;;;;8.18;2.13;;;17.70;99.90;;;;;;6121801;23;20049;-72
2023/09/30 09:15:49;;;;;;;9.38;2.60;;;17.50;99.90;;;;;;6121475;23;20014;-71
2023/09/30 09:18:33;;;;;;;8.00;1.90;;;17.20;99.90;;;;;;6122413;23;20498;-71
2023/09/30 09:21:17;;;;;;;10.15;2.15;;;17.70;99.90;;;;;;6121411;23;20029;-71
2023/09/30 09:23:51;;;;;;;10.23;2.77;;;17.20;99.90;;;;;;6121811;23;20444;-71
2023/09/30 09:26:38;;;;;;;8.45;2.30;;;17.10;99.90;;;;;;6121333;23;20339;-71
2023/09/30 09:29:04;;;;;;;8.10;2.00;;;18.10;99.90;;;;;;6120681;23;20301;-71
2023/09/30 09:31:35;;;;;;;8.93;2.08;;;17.30;99.90;;;;;;6122029;23;20085;-71
2023/09/30 09:34:02;;;;;;;7.97;1.98;;;17.10;99.90;;;;;;6121421;23;20347;-71
2023/09/30 09:36:44;;;;;;;12.50;1.60;;;17.10;99.90;;;;;;6121407;23;20021;-71
2023/09/30 09:39:13;;;;;;;7.85;1.75;;;17.20;99.90;;;;;;6120761;23;20041;-71
2023/09/30 09:41:53;;;;;;;8.60;2.20;;;18.50;99.90;;;;;;6097278;23;20025;-71
2023/09/30 09:44:23;;;;;;;10.63;2.55;;;17.40;99.90;;;;;;6121818;23;20021;-71
2023/09/30 09:46:50;;;;;;;9.50;2.42;;;17.50;99.90;;;;;;6121662;23;20359;-71
2023/09/30 09:49:19;;;;;;;7.80;1.70;;;18.20;99.90;;;;;;6121849;23;20080;-70
2023/09/30 09:51:47;;;;;;;5.60;1.75;;;17.70;99.90;;;;;;6122710;23;20014;-71
2023/09/30 09:54:14;;;;;;;9.93;2.00;;;17.10;99.90;;;;;;6123216;23;20049;-71
2023/09/30 09:56:45;;;;;;;5.00;1.80;;;17.60;99.90;;;;;;6119418;23;20014;-71
2023/09/30 09:59:12;;;;;;;8.23;2.30;;;17.70;99.90;;;;;;6119832;23;20023;-71
2023/09/30 10:01:40;;;;;;;6.32;1.98;;;17.50;99.90;;;;;;6119188;23;20204;-71
2023/09/30 10:04:06;;;;;;;8.40;2.10;;;17.80;99.90;;;;;;6120719;23;20006;-71
2023/09/30 10:06:38;;;;;;;12.25;1.90;;;17.20;99.90;;;;;;6122214;23;20085;-70
2023/09/30 10:09:07;;;;;;;6.70;1.60;;;17.10;99.90;;;;;;6095009;23;20043;-71
2023/09/30 10:11:33;;;;;;;5.88;1.85;;;18.20;99.90;;;;;;6120233;23;20021;-71
2023/09/30 10:14:06;;;;;;;9.88;2.10;;;17.80;99.90;;;;;;6120188;23;20014;-71
2023/09/30 10:16:39;;;;;;;5.97;1.80;;;17.20;99.90;;;;;;6095030;23;20010;-70
2023/09/30 10:19:12;;;;;;;6.95;2.25;;;17.80;99.90;;;;;;6122486;23;20021;-71
2023/09/30 10:21:39;;;;;;;5.93;1.50;;;17.00;99.90;;;;;;6120590;23;20017;-71
2023/09/30 10:24:23;;;;;;;6.63;1.90;;;18.00;99.90;;;;;;6095872;23;20041;-71
2023/09/30 10:27:31;;;;;;;8.50;2.60;;;17.30;99.90;;;;;;6121420;23;20072;-71
2023/09/30 10:30:16;;;;;;;5.35;1.80;;;17.50;99.90;;;;;;6095364;23;20369;-71
2023/09/30 10:32:50;;;;;;;8.43;2.42;;;17.90;99.90;;;;;;6096189;23;20014;-71
2023/09/30 10:35:31;;;;;;;7.88;2.20;;;18.20;99.90;;;;;;6120435;23;20017;-71
2023/09/30 10:38:26;;;;;;;9.77;2.25;;;18.10;99.90;;;;;;6119998;23;20029;-71
2023/09/30 10:40:54;;;;;;;8.60;1.83;;;17.20;99.90;;;;;;6120058;23;20116;-70
2023/09/30 10:43:37;;;;;;;13.65;2.40;;;17.80;99.90;;;;;;6120760;23;20283;-71
2023/09/30 10:46:07;;;;;;;6.68;1.83;;;17.40;99.90;;;;;;6119813;23;20391;-71
2023/09/30 10:48:38;;;;;;;10.65;2.22;;;18.10;99.90;;;;;;6122184;23;20049;-70
2023/09/30 10:51:15;;;;;;;7.38;1.63;;;18.10;99.90;;;;;;6122056;23;20483;-71
2023/09/30 10:53:46;;;;;;;7.70;1.83;;;17.70;99.90;;;;;;6122168;23;20014;-71
2023/09/30 10:56:12;;;;;;;5.68;1.77;;;18.60;99.90;;;;;;6122196;23;20014;-70
2023/09/30 10:58:49;;;;;;;5.32;1.75;;;17.40;99.90;;;;;;6096989;23;20359;-72
2023/09/30 11:01:25;;;;;;;7.88;2.05;;;17.90;99.90;;;;;;6121200;23;20478;-71
2023/09/30 11:03:59;;;;;;;8.25;2.03;;;18.10;99.90;;;;;;6098464;23;20021;-70
2023/09/30 11:06:24;;;;;;;7.97;1.40;;;17.20;99.90;;;;;;6124229;23;20085;-70
2023/09/30 11:08:59;;;;;;;6.13;1.77;;;17.50;99.90;;;;;;6122030;23;20104;-70
2023/09/30 11:11:55;;;;;;;7.95;2.35;;;17.60;99.90;;;;;;6124236;23;20017;-70
2023/09/30 11:14:23;;;;;;;8.48;1.70;;;17.10;99.90;;;;;;6103834;23;20388;-70
2023/09/30 11:16:51;;;;;;;6.10;2.00;;;18.00;99.90;;;;;;6098506;23;20403;-70
2023/09/30 11:19:17;;;;;;;6.45;1.70;;;18.10;99.90;;;;;;6122057;23;20105;-70
2023/09/30 11:21:45;;;;;;;7.40;1.73;;;17.40;99.90;;;;;;6122612;23;20447;-70
2023/09/30 11:24:13;;;;;;;5.65;1.73;;;18.30;99.90;;;;;;6121270;23;20089;-70
2023/09/30 11:26:41;;;;;;;7.70;1.80;;;18.00;99.90;;;;;;6122488;23;20017;-70
2023/09/30 11:29:15;;;;;;;9.48;2.83;;;18.30;99.90;;;;;;6121580;23;20018;-70
2023/09/30 11:31:43;;;;;;;9.10;2.05;;;17.10;99.90;;;;;;6098074;23;20014;-70
2023/09/30 11:34:11;;;;;;;5.95;1.70;;;17.20;99.90;;;;;;6122283;23;20465;-70
2023/09/30 11:36:40;;;;;;;8.25;1.60;;;18.30;99.90;;;;;;6122505;23;20097;-70
2023/09/30 11:39:08;;;;;;;4.95;1.60;;;18.20;99.90;;;;;;6122167;23;20033;-67
2023/09/30 11:41:41;;;;;;;6.65;1.67;;;17.60;99.90;;;;;;6097554;23;20348;-68
2023/09/30 11:44:10;;;;;;;7.90;1.92;;;18.30;99.90;;;;;;6124324;23;20021;-67
2023/09/30 11:46:53;;;;;;;6.68;1.73;;;17.80;96.80;;;;;;6124072;23;20014;-69
2023/09/30 11:49:27;;;;;;;8.25;2.28;;;;;;;;;;6123762;23;20006;-69
2023/09/30 11:51:53;;;;;;;8.40;1.90;;;17.30;57.00;;;;;;6123980;23;20021;-69
2023/09/30 11:54:19;;;;;;;7.38;2.70;;;18.10;76.30;;;;;;6123775;23;20344;-69
2023/09/30 11:56:45;;;;;;;4.95;1.45;;;17.50;62.90;;;;;;6097368;23;20014;-69
2023/09/30 11:59:10;;;;;;;6.70;1.73;;;17.50;46.30;;;;;;6121452;23;20080;-69
2023/09/30 12:01:39;;;;;;;4.85;1.75;;;17.90;40.70;;;;;;6124262;23;20104;-69
2023/09/30 12:04:06;;;;;;;8.90;2.05;;;17.70;29.60;;;;;;6122117;23;20014;-69
2023/09/30 12:06:34;;;;;;;6.45;1.65;;;18.00;20.30;;;;;;6122366;23;20018;-69
2023/09/30 12:08:59;;;;;;;7.85;2.13;;;17.10;14.70;;;;;;6121626;23;20018;-69
2023/09/30 12:11:25;;;;;;;5.75;2.00;;;17.10;9.60;;;;;;6121732;23;20068;-69
2023/09/30 12:13:51;;;;;;;8.05;2.55;;;17.60;3.20;;;;;;6122344;23;20057;-68
2023/09/30 12:16:21;;;;;;;6.78;1.73;;;18.30;1.00;;;;;;6122055;23;20025;-68
2023/09/30 12:18:46;;;;;;;7.88;1.88;;;18.50;1.00;;;;;;6122028;23;20026;-69
2023/09/30 12:21:13;;;;;;;6.28;1.95;;;17.30;1.00;;;;;;6123635;23;20006;-69
2023/09/30 12:23:39;;;;;;;6.65;2.00;;;18.30;1.00;;;;;;6124217;23;20343;-69
2023/09/30 12:26:05;;;;;;;6.18;1.52;;;18.00;1.00;;;;;;6097358;23;20018;-68
2023/09/30 12:28:34;;;;;;;7.05;1.70;;;17.90;1.00;;;;;;6121830;23;20452;-69
2023/09/30 12:31:04;;;;;;;7.88;1.70;;;18.90;1.00;;;;;;6123623;23;20014;-69
2023/09/30 12:33:31;;;;;;;6.07;1.90;;;17.60;1.00;;;;;;6095028;23;20014;-70
2023/09/30 12:35:59;;;;;;;6.82;1.63;;;18.50;1.00;;;;;;6070246;23;20092;-69
2023/09/30 12:38:27;;;;;;;7.88;2.00;;;18.00;1.00;;;;;;6122391;23;20464;-69
2023/09/30 12:40:53;;;;;;;8.68;1.90;;;17.60;1.00;;;;;;6097430;23;20017;-69
2023/09/30 12:43:19;;;;;;;5.47;1.70;;;17.40;1.00;;;;;;6096230;23;20037;-70
2023/09/30 12:45:47;;;;;;;7.55;2.00;;;18.40;1.00;;;;;;6122755;23;20006;-70
2023/09/30 12:48:13;;;;;;;7.38;2.30;;;17.30;1.00;;;;;;6096449;23;20025;-70
2023/09/30 12:50:38;;;;;;;7.90;1.77;;;18.20;1.00;;;;;;6097124;23;20110;-69